Terminal Aerodrome Forecast
Issued by NWS

Home | Current Version | Previous Version | Text Only | Print | Product List | Glossary On
Versions: 1 2 3 4 5 6 7 8 9 10 11 12
000
FTUS42 TJSJ 032320
TAFJBQ
TAF
TJBQ 032320Z 0400/0424 10015G22KT P6SM SCT020
     FM041400 08021KT P6SM SCT250
     FM042300 10012KT P6SM FEW030 SCT060
      AMD NOT SKED 0402/0411=

USA.gov is the U.S. government's official web portal to all federal, state and local government web resources and services.